sensor_id;sensor_type;location;lat;lon;timestamp;temperature;humidity
6690;DHT22;3382;51.576;8.076;2023-05-27T00:00:57;11.20;99.90
6690;DHT22;3382;51.576;8.076;2023-05-27T00:03:23;11.00;99.90
6690;DHT22;3382;51.576;8.076;2023-05-27T00:05:48;10.90;99.90
6690;DHT22;3382;51.576;8.076;2023-05-27T00:08:14;11.00;99.90
6690;DHT22;3382;51.576;8.076;2023-05-27T00:10:39;11.10;99.90
6690;DHT22;3382;51.576;8.076;2023-05-27T00:13:05;10.80;99.90
6690;DHT22;3382;51.576;8.076;2023-05-27T00:15:31;10.70;99.90
6690;DHT22;3382;51.576;8.076;2023-05-27T00:17:58;10.60;99.90
6690;DHT22;3382;51.576;8.076;2023-05-27T00:20:25;10.60;99.90
6690;DHT22;3382;51.576;8.076;2023-05-27T00:22:51;11.30;99.90
6690;DHT22;3382;51.576;8.076;2023-05-27T00:25:17;10.60;99.90
6690;DHT22;3382;51.576;8.076;2023-05-27T00:27:46;10.70;99.90
6690;DHT22;3382;51.576;8.076;2023-05-27T00:30:12;10.70;99.90
6690;DHT22;3382;51.576;8.076;2023-05-27T00:32:38;10.50;99.90
6690;DHT22;3382;51.576;8.076;2023-05-27T00:35:04;10.50;99.90
6690;DHT22;3382;51.576;8.076;2023-05-27T00:37:30;10.50;99.90
6690;DHT22;3382;51.576;8.076;2023-05-27T00:39:55;10.50;99.90
6690;DHT22;3382;51.576;8.076;2023-05-27T00:42:21;10.50;99.90
6690;DHT22;3382;51.576;8.076;2023-05-27T00:44:46;10.40;99.90
6690;DHT22;3382;51.576;8.076;2023-05-27T00:47:12;10.40;99.90
6690;DHT22;3382;51.576;8.076;2023-05-27T00:49:39;10.30;99.90
6690;DHT22;3382;51.576;8.076;2023-05-27T00:52:05;10.20;99.90
6690;DHT22;3382;51.576;8.076;2023-05-27T00:54:31;10.10;99.90
6690;DHT22;3382;51.576;8.076;2023-05-27T00:56:59;10.10;99.90
6690;DHT22;3382;51.576;8.076;2023-05-27T00:59:28;10.00;99.90
6690;DHT22;3382;51.576;8.076;2023-05-27T01:01:54;10.50;99.90
6690;DHT22;3382;51.576;8.076;2023-05-27T01:04:20;9.90;99.90
6690;DHT22;3382;51.576;8.076;2023-05-27T01:11:59;9.90;99.90
6690;DHT22;3382;51.576;8.076;2023-05-27T01:14:28;9.80;99.90
6690;DHT22;3382;51.576;8.076;2023-05-27T01:16:57;9.80;99.90
6690;DHT22;3382;51.576;8.076;2023-05-27T01:19:44;9.70;99.90
6690;DHT22;3382;51.576;8.076;2023-05-27T01:22:14;9.70;99.90
6690;DHT22;3382;51.576;8.076;2023-05-27T01:24:40;9.70;99.90
6690;DHT22;3382;51.576;8.076;2023-05-27T01:27:10;9.90;99.90
6690;DHT22;3382;51.576;8.076;2023-05-27T01:29:39;9.70;99.90
6690;DHT22;3382;51.576;8.076;2023-05-27T01:32:21;9.80;99.90
6690;DHT22;3382;51.576;8.076;2023-05-27T01:34:57;9.70;99.90
6690;DHT22;3382;51.576;8.076;2023-05-27T01:37:25;9.90;99.90
6690;DHT22;3382;51.576;8.076;2023-05-27T01:39:54;9.70;99.90
6690;DHT22;3382;51.576;8.076;2023-05-27T01:42:20;9.70;99.90
6690;DHT22;3382;51.576;8.076;2023-05-27T01:44:46;10.00;99.90
6690;DHT22;3382;51.576;8.076;2023-05-27T01:47:12;9.50;99.90
6690;DHT22;3382;51.576;8.076;2023-05-27T01:49:38;9.80;99.90
6690;DHT22;3382;51.576;8.076;2023-05-27T01:52:03;9.40;99.90
6690;DHT22;3382;51.576;8.076;2023-05-27T01:54:29;9.30;99.90
6690;DHT22;3382;51.576;8.076;2023-05-27T01:56:56;9.30;99.90
6690;DHT22;3382;51.576;8.076;2023-05-27T01:59:22;9.40;99.90
6690;DHT22;3382;51.576;8.076;2023-05-27T02:01:47;9.40;99.90
6690;DHT22;3382;51.576;8.076;2023-05-27T02:04:13;9.40;99.90
6690;DHT22;3382;51.576;8.076;2023-05-27T02:06:38;9.40;99.90
6690;DHT22;3382;51.576;8.076;2023-05-27T02:09:04;9.30;99.90
6690;DHT22;3382;51.576;8.076;2023-05-27T02:11:30;9.30;99.90
6690;DHT22;3382;51.576;8.076;2023-05-27T02:13:55;9.40;99.90
6690;DHT22;3382;51.576;8.076;2023-05-27T02:16:21;9.30;99.90
6690;DHT22;3382;51.576;8.076;2023-05-27T02:18:48;9.30;99.90
6690;DHT22;3382;51.576;8.076;2023-05-27T02:21:14;9.20;99.90
6690;DHT22;3382;51.576;8.076;2023-05-27T02:23:40;9.20;99.90
6690;DHT22;3382;51.576;8.076;2023-05-27T02:26:05;9.10;99.90
6690;DHT22;3382;51.576;8.076;2023-05-27T02:28:31;9.10;99.90
6690;DHT22;3382;51.576;8.076;2023-05-27T02:30:58;9.00;99.90
6690;DHT22;3382;51.576;8.076;2023-05-27T02:33:24;9.00;99.90
6690;DHT22;3382;51.576;8.076;2023-05-27T02:35:50;9.10;99.90
6690;DHT22;3382;51.576;8.076;2023-05-27T02:38:15;9.00;99.90
6690;DHT22;3382;51.576;8.076;2023-05-27T02:40:41;9.50;99.90
6690;DHT22;3382;51.576;8.076;2023-05-27T02:43:06;9.00;99.90
6690;DHT22;3382;51.576;8.076;2023-05-27T02:45:33;9.60;99.90
6690;DHT22;3382;51.576;8.076;2023-05-27T02:47:59;9.00;99.90
6690;DHT22;3382;51.576;8.076;2023-05-27T02:50:28;9.00;99.90
6690;DHT22;3382;51.576;8.076;2023-05-27T02:52:53;9.40;99.90
6690;DHT22;3382;51.576;8.076;2023-05-27T02:55:19;8.90;99.90
6690;DHT22;3382;51.576;8.076;2023-05-27T02:57:44;8.80;99.90
6690;DHT22;3382;51.576;8.076;2023-05-27T03:00:12;9.40;99.90
6690;DHT22;3382;51.576;8.076;2023-05-27T03:02:38;8.70;99.90
6690;DHT22;3382;51.576;8.076;2023-05-27T03:05:04;8.60;99.90
6690;DHT22;3382;51.576;8.076;2023-05-27T03:07:30;8.60;99.90
6690;DHT22;3382;51.576;8.076;2023-05-27T03:09:56;9.10;99.90
6690;DHT22;3382;51.576;8.076;2023-05-27T03:12:22;8.60;99.90
6690;DHT22;3382;51.576;8.076;2023-05-27T03:14:48;8.80;99.90
6690;DHT22;3382;51.576;8.076;2023-05-27T03:17:14;9.00;99.90
6690;DHT22;3382;51.576;8.076;2023-05-27T03:19:40;8.70;99.90
6690;DHT22;3382;51.576;8.076;2023-05-27T03:22:05;8.80;99.90
6690;DHT22;3382;51.576;8.076;2023-05-27T03:24:32;9.20;99.90
6690;DHT22;3382;51.576;8.076;2023-05-27T03:26:59;8.70;99.90
6690;DHT22;3382;51.576;8.076;2023-05-27T03:29:25;8.70;99.90
6690;DHT22;3382;51.576;8.076;2023-05-27T03:31:50;8.70;99.90
6690;DHT22;3382;51.576;8.076;2023-05-27T03:34:16;9.10;99.90
6690;DHT22;3382;51.576;8.076;2023-05-27T03:36:41;8.70;99.90
6690;DHT22;3382;51.576;8.076;2023-05-27T03:39:11;8.60;99.90
6690;DHT22;3382;51.576;8.076;2023-05-27T03:41:37;8.50;99.90
6690;DHT22;3382;51.576;8.076;2023-05-27T03:44:03;8.50;99.90
6690;DHT22;3382;51.576;8.076;2023-05-27T03:46:28;8.50;99.90
6690;DHT22;3382;51.576;8.076;2023-05-27T03:48:54;9.00;99.90
6690;DHT22;3382;51.576;8.076;2023-05-27T03:51:20;8.70;99.90
6690;DHT22;3382;51.576;8.076;2023-05-27T03:53:46;8.50;99.90
6690;DHT22;3382;51.576;8.076;2023-05-27T03:56:11;8.50;99.90
6690;DHT22;3382;51.576;8.076;2023-05-27T03:58:37;8.50;99.90
6690;DHT22;3382;51.576;8.076;2023-05-27T04:01:05;8.50;99.90
6690;DHT22;3382;51.576;8.076;2023-05-27T04:03:31;8.50;99.90
6690;DHT22;3382;51.576;8.076;2023-05-27T04:05:57;8.50;99.90
6690;DHT22;3382;51.576;8.076;2023-05-27T04:08:23;8.90;99.90
6690;DHT22;3382;51.576;8.076;2023-05-27T04:10:55;8.50;99.90
6690;DHT22;3382;51.576;8.076;2023-05-27T04:13:20;8.50;99.90
6690;DHT22;3382;51.576;8.076;2023-05-27T04:15:46;9.00;99.90
6690;DHT22;3382;51.576;8.076;2023-05-27T04:18:12;8.60;99.90
6690;DHT22;3382;51.576;8.076;2023-05-27T04:20:39;8.70;99.90
6690;DHT22;3382;51.576;8.076;2023-05-27T04:23:09;8.80;99.90
6690;DHT22;3382;51.576;8.076;2023-05-27T04:25:36;8.80;99.90
6690;DHT22;3382;51.576;8.076;2023-05-27T04:28:03;8.80;99.90
6690;DHT22;3382;51.576;8.076;2023-05-27T04:30:31;8.80;99.90
6690;DHT22;3382;51.576;8.076;2023-05-27T04:32:58;9.00;99.90
6690;DHT22;3382;51.576;8.076;2023-05-27T04:35:24;9.00;99.90
6690;DHT22;3382;51.576;8.076;2023-05-27T04:37:50;9.10;99.90
6690;DHT22;3382;51.576;8.076;2023-05-27T04:40:17;9.20;99.90
6690;DHT22;3382;51.576;8.076;2023-05-27T04:42:43;9.30;99.90
6690;DHT22;3382;51.576;8.076;2023-05-27T04:45:10;9.50;99.90
6690;DHT22;3382;51.576;8.076;2023-05-27T04:47:37;9.70;99.90
6690;DHT22;3382;51.576;8.076;2023-05-27T04:50:09;10.00;99.90
6690;DHT22;3382;51.576;8.076;2023-05-27T04:52:36;10.20;99.90
6690;DHT22;3382;51.576;8.076;2023-05-27T04:55:07;10.50;99.90
6690;DHT22;3382;51.576;8.076;2023-05-27T04:57:34;10.90;99.90
6690;DHT22;3382;51.576;8.076;2023-05-27T05:00:00;11.10;99.90
6690;DHT22;3382;51.576;8.076;2023-05-27T05:02:30;11.20;99.90
6690;DHT22;3382;51.576;8.076;2023-05-27T05:05:06;11.30;99.90
6690;DHT22;3382;51.576;8.076;2023-05-27T05:07:32;11.40;99.90
6690;DHT22;3382;51.576;8.076;2023-05-27T05:09:59;11.50;99.90
6690;DHT22;3382;51.576;8.076;2023-05-27T05:12:25;11.50;99.90
6690;DHT22;3382;51.576;8.076;2023-05-27T05:14:51;11.50;99.90
6690;DHT22;3382;51.576;8.076;2023-05-27T05:17:17;11.60;99.90
6690;DHT22;3382;51.576;8.076;2023-05-27T05:19:43;11.60;99.90
6690;DHT22;3382;51.576;8.076;2023-05-27T05:22:10;11.60;99.90
6690;DHT22;3382;51.576;8.076;2023-05-27T05:24:38;11.60;99.90
6690;DHT22;3382;51.576;8.076;2023-05-27T05:27:04;12.20;99.90
6690;DHT22;3382;51.576;8.076;2023-05-27T05:29:31;11.60;99.90
6690;DHT22;3382;51.576;8.076;2023-05-27T05:31:56;11.60;99.90
6690;DHT22;3382;51.576;8.076;2023-05-27T05:34:22;11.60;99.90
6690;DHT22;3382;51.576;8.076;2023-05-27T05:36:47;12.30;99.90
6690;DHT22;3382;51.576;8.076;2023-05-27T05:39:13;11.80;99.90
6690;DHT22;3382;51.576;8.076;2023-05-27T05:41:39;11.90;99.90
6690;DHT22;3382;51.576;8.076;2023-05-27T05:44:04;12.10;99.90
6690;DHT22;3382;51.576;8.076;2023-05-27T05:46:30;12.20;99.90
6690;DHT22;3382;51.576;8.076;2023-05-27T05:48:56;12.40;99.90
6690;DHT22;3382;51.576;8.076;2023-05-27T05:51:21;12.50;99.90
6690;DHT22;3382;51.576;8.076;2023-05-27T05:53:47;12.70;99.90
6690;DHT22;3382;51.576;8.076;2023-05-27T05:56:12;13.00;99.90
6690;DHT22;3382;51.576;8.076;2023-05-27T05:58:38;12.90;99.90
6690;DHT22;3382;51.576;8.076;2023-05-27T06:01:04;13.10;99.90
6690;DHT22;3382;51.576;8.076;2023-05-27T06:03:30;13.30;99.90
6690;DHT22;3382;51.576;8.076;2023-05-27T06:05:55;13.40;99.90
6690;DHT22;3382;51.576;8.076;2023-05-27T06:08:21;13.40;99.90
6690;DHT22;3382;51.576;8.076;2023-05-27T06:10:46;13.30;99.90
6690;DHT22;3382;51.576;8.076;2023-05-27T06:13:12;13.30;99.90
6690;DHT22;3382;51.576;8.076;2023-05-27T06:15:38;13.30;99.90
6690;DHT22;3382;51.576;8.076;2023-05-27T06:18:04;13.40;99.90
6690;DHT22;3382;51.576;8.076;2023-05-27T06:20:29;13.40;99.90
6690;DHT22;3382;51.576;8.076;2023-05-27T06:22:55;13.40;99.90
6690;DHT22;3382;51.576;8.076;2023-05-27T06:25:21;13.50;99.90
6690;DHT22;3382;51.576;8.076;2023-05-27T06:27:47;13.80;99.90
6690;DHT22;3382;51.576;8.076;2023-05-27T06:30:12;13.90;99.90
6690;DHT22;3382;51.576;8.076;2023-05-27T06:32:38;13.80;99.90
6690;DHT22;3382;51.576;8.076;2023-05-27T06:35:04;13.90;99.90
6690;DHT22;3382;51.576;8.076;2023-05-27T06:37:30;14.00;99.90
6690;DHT22;3382;51.576;8.076;2023-05-27T06:39:55;14.10;99.90
6690;DHT22;3382;51.576;8.076;2023-05-27T06:42:21;14.40;99.90
6690;DHT22;3382;51.576;8.076;2023-05-27T06:44:48;14.20;99.90
6690;DHT22;3382;51.576;8.076;2023-05-27T06:47:14;14.20;99.90
6690;DHT22;3382;51.576;8.076;2023-05-27T06:49:39;14.30;99.90
6690;DHT22;3382;51.576;8.076;2023-05-27T06:52:05;14.30;99.90
6690;DHT22;3382;51.576;8.076;2023-05-27T06:54:32;14.30;99.90
6690;DHT22;3382;51.576;8.076;2023-05-27T06:56:57;14.30;99.90
6690;DHT22;3382;51.576;8.076;2023-05-27T06:59:23;14.30;99.90
6690;DHT22;3382;51.576;8.076;2023-05-27T07:01:49;14.30;99.90
6690;DHT22;3382;51.576;8.076;2023-05-27T07:04:15;14.30;99.90
6690;DHT22;3382;51.576;8.076;2023-05-27T07:06:42;14.40;99.90
6690;DHT22;3382;51.576;8.076;2023-05-27T07:09:08;14.50;99.90
6690;DHT22;3382;51.576;8.076;2023-05-27T07:11:34;14.90;99.90
6690;DHT22;3382;51.576;8.076;2023-05-27T07:13:59;15.20;99.90
6690;DHT22;3382;51.576;8.076;2023-05-27T07:16:25;15.00;99.90
6690;DHT22;3382;51.576;8.076;2023-05-27T07:18:51;14.90;99.90
6690;DHT22;3382;51.576;8.076;2023-05-27T07:21:17;14.90;99.90
6690;DHT22;3382;51.576;8.076;2023-05-27T07:23:42;14.90;99.90
6690;DHT22;3382;51.576;8.076;2023-05-27T07:26:08;14.90;99.90
6690;DHT22;3382;51.576;8.076;2023-05-27T07:28:34;14.80;99.90
6690;DHT22;3382;51.576;8.076;2023-05-27T07:30:59;14.80;99.90
6690;DHT22;3382;51.576;8.076;2023-05-27T07:33:25;14.90;99.90
6690;DHT22;3382;51.576;8.076;2023-05-27T07:35:51;15.00;99.90
6690;DHT22;3382;51.576;8.076;2023-05-27T07:38:16;15.00;99.90
6690;DHT22;3382;51.576;8.076;2023-05-27T07:40:42;15.10;99.90
6690;DHT22;3382;51.576;8.076;2023-05-27T07:43:07;15.20;99.90
6690;DHT22;3382;51.576;8.076;2023-05-27T07:45:33;15.30;99.90
6690;DHT22;3382;51.576;8.076;2023-05-27T07:47:59;15.30;99.90
6690;DHT22;3382;51.576;8.076;2023-05-27T07:50:24;15.20;99.90
6690;DHT22;3382;51.576;8.076;2023-05-27T07:52:50;15.20;99.90
6690;DHT22;3382;51.576;8.076;2023-05-27T07:55:16;15.30;99.90
6690;DHT22;3382;51.576;8.076;2023-05-27T07:57:42;15.40;99.90
6690;DHT22;3382;51.576;8.076;2023-05-27T08:00:09;15.40;99.90
6690;DHT22;3382;51.576;8.076;2023-05-27T08:02:36;15.40;99.90
6690;DHT22;3382;51.576;8.076;2023-05-27T08:05:02;15.50;99.90
6690;DHT22;3382;51.576;8.076;2023-05-27T08:07:29;15.70;99.90
6690;DHT22;3382;51.576;8.076;2023-05-27T08:09:55;15.80;99.90
6690;DHT22;3382;51.576;8.076;2023-05-27T08:12:21;16.00;99.90
6690;DHT22;3382;51.576;8.076;2023-05-27T08:14:47;16.20;99.90
6690;DHT22;3382;51.576;8.076;2023-05-27T08:17:13;16.10;99.90
6690;DHT22;3382;51.576;8.076;2023-05-27T08:19:39;16.40;99.90
6690;DHT22;3382;51.576;8.076;2023-05-27T08:22:05;16.50;99.90
6690;DHT22;3382;51.576;8.076;2023-05-27T08:24:34;16.60;99.90
6690;DHT22;3382;51.576;8.076;2023-05-27T08:27:00;16.70;99.90
6690;DHT22;3382;51.576;8.076;2023-05-27T08:29:28;16.90;99.90
6690;DHT22;3382;51.576;8.076;2023-05-27T08:31:56;17.10;99.90
6690;DHT22;3382;51.576;8.076;2023-05-27T08:34:22;17.20;99.90
6690;DHT22;3382;51.576;8.076;2023-05-27T08:36:48;17.30;99.90
6690;DHT22;3382;51.576;8.076;2023-05-27T08:39:13;17.50;99.90
6690;DHT22;3382;51.576;8.076;2023-05-27T08:41:39;17.60;99.90
6690;DHT22;3382;51.576;8.076;2023-05-27T08:44:06;17.80;99.90
6690;DHT22;3382;51.576;8.076;2023-05-27T08:46:32;18.00;99.90
6690;DHT22;3382;51.576;8.076;2023-05-27T08:48:59;18.10;99.90
6690;DHT22;3382;51.576;8.076;2023-05-27T08:51:25;18.20;99.90
6690;DHT22;3382;51.576;8.076;2023-05-27T08:53:52;18.10;99.90
6690;DHT22;3382;51.576;8.076;2023-05-27T08:56:21;18.30;99.90
6690;DHT22;3382;51.576;8.076;2023-05-27T08:58:48;18.40;99.90
6690;DHT22;3382;51.576;8.076;2023-05-27T09:01:17;18.60;99.90
6690;DHT22;3382;51.576;8.076;2023-05-27T09:03:44;18.70;99.90
6690;DHT22;3382;51.576;8.076;2023-05-27T09:06:10;18.80;99.90
6690;DHT22;3382;51.576;8.076;2023-05-27T09:08:35;18.80;99.90
6690;DHT22;3382;51.576;8.076;2023-05-27T09:11:01;18.90;99.90
6690;DHT22;3382;51.576;8.076;2023-05-27T09:13:28;19.10;99.90
6690;DHT22;3382;51.576;8.076;2023-05-27T09:16:01;19.20;99.90
6690;DHT22;3382;51.576;8.076;2023-05-27T09:18:29;19.20;99.90
6690;DHT22;3382;51.576;8.076;2023-05-27T09:20:58;19.30;99.90
6690;DHT22;3382;51.576;8.076;2023-05-27T09:23:23;19.40;99.90
6690;DHT22;3382;51.576;8.076;2023-05-27T09:25:49;19.40;99.90
6690;DHT22;3382;51.576;8.076;2023-05-27T09:28:25;19.40;99.90
6690;DHT22;3382;51.576;8.076;2023-05-27T09:31:04;19.60;99.90
6690;DHT22;3382;51.576;8.076;2023-05-27T09:33:34;19.60;99.90
6690;DHT22;3382;51.576;8.076;2023-05-27T09:36:02;19.60;99.90
6690;DHT22;3382;51.576;8.076;2023-05-27T09:38:31;19.90;99.90
6690;DHT22;3382;51.576;8.076;2023-05-27T09:41:01;20.20;99.90
6690;DHT22;3382;51.576;8.076;2023-05-27T09:43:27;19.90;99.90
6690;DHT22;3382;51.576;8.076;2023-05-27T09:46:03;19.90;99.90
6690;DHT22;3382;51.576;8.076;2023-05-27T09:48:32;19.90;99.90
6690;DHT22;3382;51.576;8.076;2023-05-27T09:50:59;19.90;99.90
6690;DHT22;3382;51.576;8.076;2023-05-27T09:53:26;19.90;99.90
6690;DHT22;3382;51.576;8.076;2023-05-27T09:55:56;20.10;99.90
6690;DHT22;3382;51.576;8.076;2023-05-27T09:58:23;20.30;99.90
6690;DHT22;3382;51.576;8.076;2023-05-27T10:00:50;20.40;99.90
6690;DHT22;3382;51.576;8.076;2023-05-27T10:03:25;20.30;99.90
6690;DHT22;3382;51.576;8.076;2023-05-27T10:05:53;20.30;99.90
6690;DHT22;3382;51.576;8.076;2023-05-27T10:08:20;20.40;99.90
6690;DHT22;3382;51.576;8.076;2023-05-27T10:10:47;20.40;99.90
6690;DHT22;3382;51.576;8.076;2023-05-27T10:13:14;20.50;99.90
6690;DHT22;3382;51.576;8.076;2023-05-27T10:15:46;20.70;99.90
6690;DHT22;3382;51.576;8.076;2023-05-27T10:18:22;20.70;99.90
6690;DHT22;3382;51.576;8.076;2023-05-27T10:20:49;20.90;99.90
6690;DHT22;3382;51.576;8.076;2023-05-27T10:23:17;21.00;99.90
6690;DHT22;3382;51.576;8.076;2023-05-27T10:25:51;21.10;99.90
6690;DHT22;3382;51.576;8.076;2023-05-27T10:30:50;21.10;99.90
6690;DHT22;3382;51.576;8.076;2023-05-27T10:33:15;21.10;99.90
6690;DHT22;3382;51.576;8.076;2023-05-27T10:35:42;21.20;99.90
6690;DHT22;3382;51.576;8.076;2023-05-27T10:38:16;21.30;99.90
6690;DHT22;3382;51.576;8.076;2023-05-27T10:40:42;21.30;99.90
6690;DHT22;3382;51.576;8.076;2023-05-27T10:43:18;21.40;99.90
6690;DHT22;3382;51.576;8.076;2023-05-27T10:45:45;21.40;99.90
6690;DHT22;3382;51.576;8.076;2023-05-27T10:48:18;21.40;99.90
6690;DHT22;3382;51.576;8.076;2023-05-27T10:50:52;21.40;99.90
6690;DHT22;3382;51.576;8.076;2023-05-27T10:53:20;21.30;99.90
6690;DHT22;3382;51.576;8.076;2023-05-27T10:55:49;21.30;99.90
6690;DHT22;3382;51.576;8.076;2023-05-27T10:58:19;21.30;99.90
6690;DHT22;3382;51.576;8.076;2023-05-27T11:00:49;21.30;99.90
6690;DHT22;3382;51.576;8.076;2023-05-27T11:03:23;21.30;99.90
6690;DHT22;3382;51.576;8.076;2023-05-27T11:06:03;21.20;99.90
6690;DHT22;3382;51.576;8.076;2023-05-27T11:08:29;21.10;99.90
6690;DHT22;3382;51.576;8.076;2023-05-27T11:11:02;21.20;99.90
6690;DHT22;3382;51.576;8.076;2023-05-27T11:13:54;21.10;99.90
6690;DHT22;3382;51.576;8.076;2023-05-27T11:16:20;21.10;99.90
6690;DHT22;3382;51.576;8.076;2023-05-27T11:18:47;21.20;99.90
6690;DHT22;3382;51.576;8.076;2023-05-27T11:21:14;21.20;99.90
6690;DHT22;3382;51.576;8.076;2023-05-27T11:23:42;21.10;99.90
6690;DHT22;3382;51.576;8.076;2023-05-27T11:26:24;21.20;99.90
6690;DHT22;3382;51.576;8.076;2023-05-27T11:28:56;21.20;99.90
6690;DHT22;3382;51.576;8.076;2023-05-27T11:31:27;21.20;99.90
6690;DHT22;3382;51.576;8.076;2023-05-27T11:33:53;21.00;99.90
6690;DHT22;3382;51.576;8.076;2023-05-27T11:36:19;21.10;99.90
6690;DHT22;3382;51.576;8.076;2023-05-27T11:41:19;21.10;99.90
6690;DHT22;3382;51.576;8.076;2023-05-27T11:43:49;21.10;99.90
6690;DHT22;3382;51.576;8.076;2023-05-27T11:46:15;21.10;99.90
6690;DHT22;3382;51.576;8.076;2023-05-27T11:48:41;21.10;99.90
6690;DHT22;3382;51.576;8.076;2023-05-27T11:51:07;21.10;99.90
6690;DHT22;3382;51.576;8.076;2023-05-27T11:53:32;21.00;99.90
6690;DHT22;3382;51.576;8.076;2023-05-27T11:55:59;20.80;99.90
6690;DHT22;3382;51.576;8.076;2023-05-27T11:58:25;21.00;99.90
6690;DHT22;3382;51.576;8.076;2023-05-27T12:00:51;21.10;99.90
6690;DHT22;3382;51.576;8.076;2023-05-27T12:03:17;21.00;99.90
6690;DHT22;3382;51.576;8.076;2023-05-27T12:05:42;21.00;99.90
6690;DHT22;3382;51.576;8.076;2023-05-27T12:08:08;20.90;99.90
6690;DHT22;3382;51.576;8.076;2023-05-27T12:10:33;20.90;99.90
6690;DHT22;3382;51.576;8.076;2023-05-27T12:13:03;21.00;99.90
6690;DHT22;3382;51.576;8.076;2023-05-27T12:15:29;21.00;99.90
6690;DHT22;3382;51.576;8.076;2023-05-27T12:17:55;21.20;99.90
6690;DHT22;3382;51.576;8.076;2023-05-27T12:20:21;21.20;99.90
6690;DHT22;3382;51.576;8.076;2023-05-27T12:22:46;21.20;99.90
6690;DHT22;3382;51.576;8.076;2023-05-27T12:25:12;21.30;99.90
6690;DHT22;3382;51.576;8.076;2023-05-27T12:27:37;21.30;99.90
6690;DHT22;3382;51.576;8.076;2023-05-27T12:30:03;21.20;99.90
6690;DHT22;3382;51.576;8.076;2023-05-27T12:32:29;21.30;99.90
6690;DHT22;3382;51.576;8.076;2023-05-27T12:34:54;21.30;99.90
6690;DHT22;3382;51.576;8.076;2023-05-27T12:37:20;21.30;99.90
6690;DHT22;3382;51.576;8.076;2023-05-27T12:39:46;21.40;99.90
6690;DHT22;3382;51.576;8.076;2023-05-27T12:42:11;21.30;99.90
6690;DHT22;3382;51.576;8.076;2023-05-27T12:44:37;21.30;99.90
6690;DHT22;3382;51.576;8.076;2023-05-27T12:47:02;21.40;99.90
6690;DHT22;3382;51.576;8.076;2023-05-27T12:49:28;21.60;99.90
6690;DHT22;3382;51.576;8.076;2023-05-27T12:51:54;21.50;99.90
6690;DHT22;3382;51.576;8.076;2023-05-27T12:54:19;21.60;99.90
6690;DHT22;3382;51.576;8.076;2023-05-27T12:56:45;21.50;99.90
6690;DHT22;3382;51.576;8.076;2023-05-27T12:59:10;21.40;99.90
6690;DHT22;3382;51.576;8.076;2023-05-27T13:01:36;21.40;99.90
6690;DHT22;3382;51.576;8.076;2023-05-27T13:04:02;21.40;99.90
6690;DHT22;3382;51.576;8.076;2023-05-27T13:06:27;21.30;99.90
6690;DHT22;3382;51.576;8.076;2023-05-27T13:08:53;21.20;99.90
6690;DHT22;3382;51.576;8.076;2023-05-27T13:11:18;21.20;99.90
6690;DHT22;3382;51.576;8.076;2023-05-27T13:13:44;21.40;99.90
6690;DHT22;3382;51.576;8.076;2023-05-27T13:16:10;21.40;99.90
6690;DHT22;3382;51.576;8.076;2023-05-27T13:18:36;21.40;99.90
6690;DHT22;3382;51.576;8.076;2023-05-27T13:21:02;21.40;99.90
6690;DHT22;3382;51.576;8.076;2023-05-27T13:23:28;21.40;99.90
6690;DHT22;3382;51.576;8.076;2023-05-27T13:25:54;21.40;99.90
6690;DHT22;3382;51.576;8.076;2023-05-27T13:28:20;21.40;99.90
6690;DHT22;3382;51.576;8.076;2023-05-27T13:30:46;21.30;99.90
6690;DHT22;3382;51.576;8.076;2023-05-27T13:33:11;21.40;99.90
6690;DHT22;3382;51.576;8.076;2023-05-27T13:35:37;21.40;99.90
6690;DHT22;3382;51.576;8.076;2023-05-27T13:38:02;21.40;99.90
6690;DHT22;3382;51.576;8.076;2023-05-27T13:40:29;21.40;99.90
6690;DHT22;3382;51.576;8.076;2023-05-27T13:42:55;21.50;99.90
6690;DHT22;3382;51.576;8.076;2023-05-27T13:45:20;21.50;99.90
6690;DHT22;3382;51.576;8.076;2023-05-27T13:47:46;21.50;99.90
6690;DHT22;3382;51.576;8.076;2023-05-27T13:50:11;21.50;99.90
6690;DHT22;3382;51.576;8.076;2023-05-27T13:52:37;21.40;99.90
6690;DHT22;3382;51.576;8.076;2023-05-27T13:55:04;21.50;99.90
6690;DHT22;3382;51.576;8.076;2023-05-27T13:57:30;21.50;99.90
6690;DHT22;3382;51.576;8.076;2023-05-27T13:59:56;21.60;99.90
6690;DHT22;3382;51.576;8.076;2023-05-27T14:02:21;21.60;99.90
6690;DHT22;3382;51.576;8.076;2023-05-27T14:04:47;21.60;99.90
6690;DHT22;3382;51.576;8.076;2023-05-27T14:07:13;21.40;99.90
6690;DHT22;3382;51.576;8.076;2023-05-27T14:09:38;21.50;99.90
6690;DHT22;3382;51.576;8.076;2023-05-27T14:12:04;21.50;99.90
6690;DHT22;3382;51.576;8.076;2023-05-27T14:14:30;21.50;99.90
6690;DHT22;3382;51.576;8.076;2023-05-27T14:16:56;21.50;99.90
6690;DHT22;3382;51.576;8.076;2023-05-27T14:19:22;21.50;99.90
6690;DHT22;3382;51.576;8.076;2023-05-27T14:21:47;21.60;99.90
6690;DHT22;3382;51.576;8.076;2023-05-27T14:24:13;21.60;99.90
6690;DHT22;3382;51.576;8.076;2023-05-27T14:26:39;21.60;99.90
6690;DHT22;3382;51.576;8.076;2023-05-27T14:29:05;21.60;99.90
6690;DHT22;3382;51.576;8.076;2023-05-27T14:31:31;21.70;99.90
6690;DHT22;3382;51.576;8.076;2023-05-27T14:33:56;21.60;99.90
6690;DHT22;3382;51.576;8.076;2023-05-27T14:36:22;21.80;99.90
6690;DHT22;3382;51.576;8.076;2023-05-27T14:38:47;21.80;99.90
6690;DHT22;3382;51.576;8.076;2023-05-27T14:41:13;21.80;99.90
6690;DHT22;3382;51.576;8.076;2023-05-27T14:43:39;21.90;99.90
6690;DHT22;3382;51.576;8.076;2023-05-27T14:46:04;21.80;99.90
6690;DHT22;3382;51.576;8.076;2023-05-27T14:48:30;21.80;99.90
6690;DHT22;3382;51.576;8.076;2023-05-27T14:50:56;21.80;99.90
6690;DHT22;3382;51.576;8.076;2023-05-27T14:53:21;21.80;99.90
6690;DHT22;3382;51.576;8.076;2023-05-27T14:55:47;21.70;99.90
6690;DHT22;3382;51.576;8.076;2023-05-27T14:58:14;21.70;99.90
6690;DHT22;3382;51.576;8.076;2023-05-27T15:00:40;21.80;99.90
6690;DHT22;3382;51.576;8.076;2023-05-27T15:03:06;21.70;99.90
6690;DHT22;3382;51.576;8.076;2023-05-27T15:05:31;21.70;99.90
6690;DHT22;3382;51.576;8.076;2023-05-27T15:07:57;21.80;99.90
6690;DHT22;3382;51.576;8.076;2023-05-27T15:10:23;21.80;99.90
6690;DHT22;3382;51.576;8.076;2023-05-27T15:12:49;21.80;99.90
6690;DHT22;3382;51.576;8.076;2023-05-27T15:15:17;21.90;99.90
6690;DHT22;3382;51.576;8.076;2023-05-27T15:17:43;22.10;99.90
6690;DHT22;3382;51.576;8.076;2023-05-27T15:20:17;21.90;99.90
6690;DHT22;3382;51.576;8.076;2023-05-27T15:22:43;21.90;99.90
6690;DHT22;3382;51.576;8.076;2023-05-27T15:25:09;21.90;99.90
6690;DHT22;3382;51.576;8.076;2023-05-27T15:27:35;22.00;99.90
6690;DHT22;3382;51.576;8.076;2023-05-27T15:30:05;22.00;99.90
6690;DHT22;3382;51.576;8.076;2023-05-27T15:32:31;21.90;99.90
6690;DHT22;3382;51.576;8.076;2023-05-27T15:34:57;22.00;99.30
6690;DHT22;3382;51.576;8.076;2023-05-27T15:37:23;21.90;99.30
6690;DHT22;3382;51.576;8.076;2023-05-27T15:39:50;21.90;99.40
6690;DHT22;3382;51.576;8.076;2023-05-27T15:42:16;22.00;99.30
6690;DHT22;3382;51.576;8.076;2023-05-27T15:44:42;22.00;99.00
6690;DHT22;3382;51.576;8.076;2023-05-27T15:47:08;21.80;97.20
6690;DHT22;3382;51.576;8.076;2023-05-27T15:49:34;21.80;97.70
6690;DHT22;3382;51.576;8.076;2023-05-27T15:52:00;21.80;97.20
6690;DHT22;3382;51.576;8.076;2023-05-27T15:54:26;21.80;97.50
6690;DHT22;3382;51.576;8.076;2023-05-27T15:56:51;21.90;97.90
6690;DHT22;3382;51.576;8.076;2023-05-27T15:59:17;21.90;98.70
6690;DHT22;3382;51.576;8.076;2023-05-27T16:01:42;22.00;98.10
6690;DHT22;3382;51.576;8.076;2023-05-27T16:04:08;22.00;97.70
6690;DHT22;3382;51.576;8.076;2023-05-27T16:06:34;21.90;97.00
6690;DHT22;3382;51.576;8.076;2023-05-27T16:09:00;21.90;96.60
6690;DHT22;3382;51.576;8.076;2023-05-27T16:11:26;21.80;96.50